Terminal Aerodrome Forecast
Issued by NWS Sioux Falls, SD

Home | Current Version | Previous Version | Graphics & Text | Print | Product List | Glossary On
Versions: 1 2 3 4 5 6 7 8 9 10 11 12 13
177
FTUS43 KFSD 211122
TAFHON
TAF
KHON 211122Z 2112/2212 14009KT P6SM FEW120 BKN200
     FM211700 15015G23KT P6SM SCT200
     FM220300 15011KT P6SM SCT200
     FM221100 15013KT P6SM BKN050=

USA.gov is the U.S. government's official web portal to all federal, state and local government web resources and services.